| time (UTC) | temp F | wind direction | speed MPH | gust MPH | rain 1hr in | rain 24hr in | rain mn in | humidity % | barometer mb |
| 20260507171534 | 54 | 282 | 8.0 | 12.0 | 0.00 | 0.31 | 0.00 | 55 | 1006.9 |
| 20260507170035 | 53 | 281 | 8.0 | 11.0 | 0.00 | 0.31 | 0.00 | 60 | 1007.1 |
| 20260507164532 | 53 | 278 | 6.0 | 12.0 | 0.00 | 0.31 | 0.00 | 64 | 1007.1 |
| 20260507163032 | 53 | 290 | 6.0 | 16.0 | 0.00 | 0.31 | 0.00 | 60 | 1007.2 |
| 20260507161528 | 53 | 275 | 4.0 | 11.0 | 0.00 | 0.31 | 0.00 | 58 | 1007.3 |
| 20260507160028 | 52 | 290 | 8.0 | 12.0 | 0.00 | 0.31 | 0.00 | 65 | 1007.5 |
| 20260507154523 | 52 | 274 | 3.0 | 12.0 | 0.00 | 0.31 | 0.00 | 68 | 1007.5 |
| 20260507153018 | 52 | 278 | 4.0 | 11.0 | 0.00 | 0.31 | 0.00 | 66 | 1007.7 |
| 20260507151516 | 51 | 279 | 7.0 | 10.0 | 0.00 | 0.31 | 0.00 | 71 | 1007.8 |
| 20260507150014 | 51 | 276 | 4.0 | 13.0 | 0.00 | 0.31 | 0.00 | 71 | 1007.9 |
| 20260507144511 | 51 | 281 | 4.0 | 13.0 | 0.00 | 0.31 | 0.00 | 72 | 1008.0 |
| 20260507143010 | 50 | 264 | 6.0 | 9.0 | 0.00 | 0.31 | 0.00 | 75 | 1007.9 |
| 20260507141509 | 50 | 293 | 4.0 | 9.0 | 0.00 | 0.31 | 0.00 | 75 | 1008.0 |
| 20260507140009 | 50 | 274 | 8.0 | 11.0 | 0.00 | 0.31 | 0.00 | 76 | 1008.1 |
| 20260507134508 | 50 | 287 | 8.0 | 13.0 | 0.00 | 0.31 | 0.00 | 77 | 1008.2 |
| 20260507133005 | 49 | 278 | 8.0 | 11.0 | 0.00 | 0.31 | 0.00 | 78 | 1008.2 |
| 20260507131503 | 49 | 266 | 6.0 | 9.0 | 0.00 | 0.31 | 0.00 | 77 | 1008.4 |
| 20260507130001 | 48 | 273 | 6.0 | 9.0 | 0.00 | 0.31 | 0.00 | 77 | 1008.3 |
| 20260507124501 | 48 | 281 | 6.0 | 10.0 | 0.00 | 0.31 | 0.00 | 77 | 1008.2 |
| 20260507123106 | 48 | 279 | 5.0 | 11.0 | 0.00 | 0.31 | 0.00 | 77 | 1008.1 |
| 20260507121604 | 47 | 273 | 5.0 | 9.0 | 0.00 | 0.31 | 0.00 | 79 | 1008.3 |
| 20260507120057 | 46 | 267 | 5.0 | 7.0 | 0.00 | 0.31 | 0.00 | 80 | 1008.2 |
| 20260507114605 | 46 | 283 | 5.0 | 8.0 | 0.00 | 0.31 | 0.00 | 83 | 1008.3 |
| 20260507113054 | 46 | 278 | 5.0 | 8.0 | 0.00 | 0.31 | 0.00 | 85 | 1008.3 |
| 20260507111553 | 45 | 254 | 1.0 | 4.0 | 0.00 | 0.31 | 0.00 | 87 | 1008.1 |
| 20260507110050 | 44 | 285 | 1.0 | 5.0 | 0.00 | 0.31 | 0.00 | 88 | 1008.1 |
| 20260507104548 | 44 | 267 | 1.0 | 3.0 | 0.00 | 0.31 | 0.00 | 91 | 1007.8 |
| 20260507103047 | 43 | 34 | 0.0 | 1.0 | 0.00 | 0.31 | 0.00 | 92 | 1007.9 |
| 20260507101548 | 43 | 346 | 0.0 | 2.0 | 0.00 | 0.31 | 0.00 | 91 | 1008.1 |
| 20260507100045 | 43 | 3 | 0.0 | 1.0 | 0.00 | 0.31 | 0.00 | 91 | 1008.1 |
| 20260507094542 | 43 | 8 | 0.0 | 1.0 | 0.00 | 0.31 | 0.00 | 91 | 1008.0 |
| 20260507093041 | 44 | 305 | 1.0 | 2.0 | 0.00 | 0.31 | 0.00 | 90 | 1008.1 |
| 20260507091537 | 44 | 338 | 1.0 | 5.0 | 0.00 | 0.31 | 0.00 | 90 | 1007.6 |
| 20260507090034 | 44 | 290 | 0.0 | 4.0 | 0.00 | 0.31 | 0.00 | 90 | 1007.6 |
| 20260507084532 | 45 | 338 | 0.0 | 6.0 | 0.00 | 0.31 | 0.00 | 90 | 1007.5 |
| 20260507083037 | 45 | 295 | 1.0 | 4.0 | 0.00 | 0.31 | 0.00 | 90 | 1007.2 |
| 20260507081530 | 46 | 296 | 5.0 | 10.0 | 0.00 | 0.31 | 0.00 | 90 | 1007.2 |
| 20260507080028 | 46 | 286 | 6.0 | 11.0 | 0.00 | 0.31 | 0.00 | 90 | 1007.0 |
| 20260507074528 | 45 | 257 | 3.0 | 5.0 | 0.00 | 0.31 | 0.00 | 93 | 1007.1 |
| 20260507073022 | 46 | 262 | 0.0 | 4.0 | 0.00 | 0.31 | 0.00 | 91 | 1006.6 |
| 20260507071521 | 46 | 290 | 0.0 | 3.0 | 0.00 | 0.31 | 0.00 | 90 | 1006.6 |
| 20260507070021 | 46 | 277 | 0.0 | 6.0 | 0.00 | 0.31 | 0.00 | 90 | 1006.9 |
| 20260507064519 | 46 | 279 | 0.0 | 3.0 | 0.00 | 0.31 | 0.00 | 91 | 1006.9 |
| 20260507063018 | 46 | 222 | 0.0 | 3.0 | 0.00 | 0.31 | 0.00 | 90 | 1006.9 |
| 20260507061514 | 46 | 270 | 1.0 | 11.0 | 0.00 | 0.31 | 0.00 | 90 | 1006.5 |
| 20260507060013 | 47 | 284 | 3.0 | 8.0 | 0.00 | 0.31 | 0.00 | 90 | 1006.6 |
| 20260507054604 | 47 | 287 | 2.0 | 10.0 | 0.00 | 0.31 | 0.00 | 91 | 1006.6 |
| 20260507053056 | 47 | 301 | 6.0 | 13.0 | 0.00 | 0.31 | 0.00 | 91 | 1006.2 |
| 20260507051550 | 47 | 311 | 1.0 | 4.0 | 0.00 | 0.31 | 0.00 | 91 | 1006.2 |
| 20260507050048 | 48 | 274 | 4.0 | 8.0 | 0.00 | 0.31 | 0.00 | 90 | 1006.3 |
| 20260507044546 | 48 | 288 | 4.0 | 10.0 | 0.00 | 0.31 | 0.00 | 90 | 1006.3 |
| 20260507043044 | 48 | 274 | 6.0 | 12.0 | 0.00 | 0.31 | 0.00 | 90 | 1006.3 |
| 20260507041542 | 48 | 285 | 9.0 | 12.0 | 0.00 | 0.31 | 0.00 | 91 | 1006.3 |
| 20260507040048 | 48 | 286 | 9.0 | 15.0 | 0.01 | 0.31 | 0.00 | 91 | 1006.2 |
| 20260507034544 | 49 | 269 | 11.0 | 15.0 | 0.01 | 0.31 | 0.31 | 91 | 1006.0 |
| 20260507033039 | 49 | 276 | 10.0 | 14.0 | 0.01 | 0.31 | 0.31 | 91 | 1006.2 |
| 20260507031533 | 49 | 276 | 6.0 | 10.0 | 0.01 | 0.31 | 0.31 | 92 | 1006.1 |
| 20260507030032 | 49 | 318 | 3.0 | 8.0 | 0.01 | 0.30 | 0.30 | 92 | 1006.2 |
| 20260507024528 | 50 | 289 | 6.0 | 12.0 | 0.01 | 0.30 | 0.30 | 91 | 1006.0 |
| 20260507023029 | 50 | 271 | 9.0 | 15.0 | 0.01 | 0.30 | 0.30 | 92 | 1005.8 |
| 20260507021522 | 51 | 272 | 8.0 | 14.0 | 0.01 | 0.30 | 0.30 | 92 | 1005.6 |
| 20260507020019 | 52 | 262 | 9.0 | 13.0 | 0.01 | 0.28 | 0.28 | 92 | 1005.5 |
| 20260507014516 | 53 | 271 | 8.0 | 12.0 | 0.02 | 0.28 | 0.28 | 93 | 1005.4 |
| 20260507013011 | 53 | 266 | 3.0 | 10.0 | 0.03 | 0.28 | 0.28 | 94 | 1005.0 |
| 20260507011514 | 53 | 274 | 1.0 | 6.0 | 0.07 | 0.28 | 0.28 | 95 | 1005.0 |
| 20260507010007 | 54 | 287 | 1.0 | 4.0 | 0.06 | 0.28 | 0.28 | 95 | 1005.0 |
| 20260507004510 | 54 | 262 | 2.0 | 9.0 | 0.06 | 0.27 | 0.27 | 94 | 1004.9 |
| 20260507003007 | 56 | 281 | 5.0 | 10.0 | 0.05 | 0.25 | 0.25 | 93 | 1004.7 |
| 20260507001503 | 58 | 281 | 1.0 | 3.0 | 0.02 | 0.22 | 0.22 | 95 | 1004.3 |
| 20260507000003 | 58 | 272 | 1.0 | 3.0 | 0.02 | 0.22 | 0.22 | 95 | 1004.1 |
| 20260506234506 | 58 | 285 | 1.0 | 4.0 | 0.01 | 0.21 | 0.21 | 92 | 1004.2 |
| 20260506233002 | 59 | 221 | 2.0 | 7.0 | 0.00 | 0.20 | 0.20 | 91 | 1004.0 |
| 20260506231501 | 60 | 240 | 3.0 | 6.0 | 0.00 | 0.20 | 0.20 | 90 | 1004.0 |
| 20260506230100 | 60 | 233 | 3.0 | 7.0 | 0.00 | 0.20 | 0.20 | 90 | 1003.9 |
| 20260506224559 | 60 | 181 | 2.0 | 10.0 | 0.00 | 0.20 | 0.20 | 90 | 1003.9 |
| 20260506223058 | 60 | 226 | 4.0 | 10.0 | 0.00 | 0.20 | 0.20 | 90 | 1004.1 |
| 20260506221557 | 60 | 207 | 3.0 | 8.0 | 0.00 | 0.20 | 0.20 | 90 | 1004.1 |
| 20260506220107 | 60 | 224 | 4.0 | 10.0 | 0.00 | 0.20 | 0.20 | 90 | 1004.1 |
| 20260506214555 | 60 | 210 | 4.0 | 8.0 | 0.00 | 0.20 | 0.20 | 91 | 1004.2 |
| 20260506213100 | 59 | 144 | 3.0 | 14.0 | 0.00 | 0.20 | 0.20 | 91 | 1004.4 |
| 20260506211551 | 58 | 119 | 2.0 | 4.0 | 0.00 | 0.20 | 0.20 | 93 | 1004.5 |
| 20260506210100 | 58 | 99 | 2.0 | 6.0 | 0.01 | 0.20 | 0.20 | 95 | 1004.5 |
| 20260506204551 | 58 | 97 | 0.0 | 3.0 | 0.04 | 0.20 | 0.20 | 94 | 1004.6 |
| 20260506203135 | 59 | 103 | 0.0 | 1.0 | 0.07 | 0.20 | 0.20 | 94 | 1004.8 |
| 20260506201547 | 59 | 291 | 0.0 | 3.0 | 0.08 | 0.20 | 0.20 | 93 | 1005.1 |
| 20260506200048 | 59 | 250 | 0.0 | 3.0 | 0.08 | 0.19 | 0.19 | 92 | 1005.1 |
| 20260506194541 | 60 | 238 | 1.0 | 4.0 | 0.06 | 0.16 | 0.16 | 91 | 1005.3 |
| 20260506193039 | 60 | 255 | 1.0 | 5.0 | 0.03 | 0.13 | 0.13 | 90 | 1005.4 |
| 20260506191537 | 60 | 167 | 2.0 | 8.0 | 0.04 | 0.12 | 0.12 | 91 | 1005.7 |
| 20260506190045 | 60 | 143 | 1.0 | 7.0 | 0.04 | 0.11 | 0.11 | 91 | 1005.6 |
| 20260506184541 | 60 | 212 | 3.0 | 5.0 | 0.06 | 0.10 | 0.10 | 92 | 1005.9 |
| 20260506183034 | 60 | 160 | 1.0 | 3.0 | 0.07 | 0.10 | 0.10 | 93 | 1005.9 |
| 20260506181534 | 60 | 116 | 0.0 | 1.0 | 0.07 | 0.08 | 0.08 | 92 | 1006.2 |
| 20260506180033 | 60 | 231 | 0.0 | 1.0 | 0.07 | 0.07 | 0.07 | 92 | 1006.4 |
| 20260506174530 | 60 | 279 | 0.0 | 2.0 | 0.04 | 0.04 | 0.04 | 90 | 1006.5 |
| 20260506173037 | 61 | 192 | 0.0 | 3.0 | 0.03 | 0.03 | 0.03 | 87 | 1006.3 |